createdAt,value
2018-08-22T00:00:33.565Z,0.00
2018-08-22T00:01:33.625Z,0.00
2018-08-22T00:02:33.625Z,0.00
2018-08-22T00:03:33.658Z,0.00
2018-08-22T00:04:33.691Z,0.00
2018-08-22T00:05:33.722Z,0.00
2018-08-22T00:06:33.748Z,0.00
2018-08-22T00:07:33.780Z,0.00
2018-08-22T00:08:33.815Z,0.00
2018-08-22T00:09:33.840Z,0.00
2018-08-22T00:10:33.870Z,0.00
2018-08-22T00:11:33.904Z,0.00
2018-08-22T00:12:33.939Z,0.00
2018-08-22T00:13:33.964Z,0.00
2018-08-22T00:14:33.994Z,0.00
2018-08-22T00:15:34.024Z,0.00
2018-08-22T00:16:34.055Z,0.00
2018-08-22T00:17:34.088Z,0.00
2018-08-22T00:18:34.117Z,0.00
2018-08-22T00:19:34.147Z,0.00
2018-08-22T00:20:34.178Z,0.00
2018-08-22T00:21:34.211Z,0.00
2018-08-22T00:22:34.299Z,0.00
2018-08-22T00:23:34.267Z,0.00
2018-08-22T00:24:34.301Z,0.00
2018-08-22T00:25:34.330Z,0.00
2018-08-22T00:26:34.361Z,0.00
2018-08-22T00:27:34.391Z,0.00
2018-08-22T00:28:34.421Z,0.00
2018-08-22T00:29:34.454Z,0.00
2018-08-22T00:30:34.482Z,0.00
2018-08-22T00:31:34.512Z,0.00
2018-08-22T00:32:34.542Z,0.00
2018-08-22T00:33:34.575Z,0.00
2018-08-22T00:34:34.607Z,0.00
2018-08-22T00:35:34.640Z,0.00
2018-08-22T00:36:34.664Z,0.00
2018-08-22T00:37:34.699Z,0.00
2018-08-22T00:38:34.730Z,0.00
2018-08-22T00:39:34.761Z,0.00
2018-08-22T00:40:34.786Z,0.00
2018-08-22T00:41:34.818Z,0.00
2018-08-22T00:42:34.852Z,0.00
2018-08-22T00:43:34.879Z,0.00
2018-08-22T00:44:34.907Z,0.00
2018-08-22T00:45:34.938Z,0.00
2018-08-22T00:46:34.970Z,0.00
2018-08-22T00:47:35.002Z,0.00
2018-08-22T00:48:35.033Z,0.00
2018-08-22T00:49:35.064Z,0.00
2018-08-22T00:50:35.097Z,0.00
2018-08-22T00:51:35.121Z,0.00
2018-08-22T00:52:35.151Z,0.00
2018-08-22T00:53:35.184Z,0.00
2018-08-22T00:54:35.216Z,0.00
2018-08-22T00:55:35.247Z,0.00
2018-08-22T00:56:35.275Z,0.00
2018-08-22T00:57:35.309Z,0.00
2018-08-22T00:58:35.339Z,0.00
2018-08-22T00:59:35.370Z,0.00
2018-08-22T01:00:35.397Z,0.00
2018-08-22T01:01:35.431Z,0.00
2018-08-22T01:02:35.460Z,0.00
2018-08-22T01:03:35.490Z,0.00
2018-08-22T01:04:35.519Z,0.00
2018-08-22T01:05:35.551Z,0.00
2018-08-22T01:06:35.582Z,0.00
2018-08-22T01:07:35.614Z,0.00
2018-08-22T01:08:35.644Z,0.00
2018-08-22T01:09:35.672Z,0.00
2018-08-22T01:10:35.700Z,0.00
2018-08-22T01:11:35.731Z,0.00
2018-08-22T01:12:35.762Z,0.00
2018-08-22T01:13:35.793Z,0.00
2018-08-22T01:14:35.825Z,0.00
2018-08-22T01:15:35.858Z,0.00
2018-08-22T01:16:35.887Z,0.00
2018-08-22T01:17:35.915Z,0.00
2018-08-22T01:18:35.947Z,0.00
2018-08-22T01:19:35.981Z,0.00
2018-08-22T01:20:36.005Z,0.00
2018-08-22T01:21:36.039Z,0.00
2018-08-22T01:22:36.067Z,0.00
2018-08-22T01:23:36.096Z,0.00
2018-08-22T01:24:36.130Z,0.00
2018-08-22T01:25:36.160Z,0.00
2018-08-22T01:26:36.190Z,0.00
2018-08-22T01:27:36.222Z,0.00
2018-08-22T01:28:36.250Z,0.00
2018-08-22T01:29:36.279Z,0.00
2018-08-22T01:30:36.312Z,0.00
2018-08-22T01:31:36.339Z,0.00
2018-08-22T01:32:36.372Z,0.00
2018-08-22T01:33:36.403Z,0.00
2018-08-22T01:34:36.432Z,0.00
2018-08-22T01:35:36.465Z,0.00
2018-08-22T01:36:36.495Z,0.00
2018-08-22T01:37:36.523Z,0.00
2018-08-22T01:38:36.556Z,0.00
2018-08-22T01:39:36.586Z,0.00
2018-08-22T01:40:36.613Z,0.00
2018-08-22T01:41:36.648Z,0.00
2018-08-22T01:42:36.677Z,0.00
2018-08-22T01:43:36.706Z,0.00
2018-08-22T01:44:36.737Z,0.00
2018-08-22T01:45:36.771Z,0.00
2018-08-22T01:46:36.799Z,0.00
2018-08-22T01:47:36.833Z,0.00
2018-08-22T01:48:36.860Z,0.00
2018-08-22T01:49:36.890Z,0.00
2018-08-22T01:50:36.920Z,0.00
2018-08-22T01:51:36.949Z,0.00
2018-08-22T01:52:36.978Z,0.00
2018-08-22T01:53:37.009Z,0.00
2018-08-22T01:54:37.040Z,0.00
2018-08-22T01:55:37.072Z,0.00
2018-08-22T01:56:37.102Z,0.00
2018-08-22T01:57:37.133Z,0.00
2018-08-22T01:58:37.167Z,0.00
2018-08-22T01:59:37.198Z,0.00
2018-08-22T02:00:37.222Z,0.00
2018-08-22T02:01:37.254Z,0.00
2018-08-22T02:02:37.286Z,0.00
2018-08-22T02:03:37.314Z,0.00
2018-08-22T02:04:37.346Z,0.00
2018-08-22T02:05:37.374Z,0.00
2018-08-22T02:06:37.405Z,0.00
2018-08-22T02:07:37.439Z,0.00
2018-08-22T02:08:37.465Z,0.00
2018-08-22T02:09:37.499Z,0.00
2018-08-22T02:10:37.529Z,0.00
2018-08-22T02:11:37.561Z,0.00
2018-08-22T02:12:37.590Z,0.00
2018-08-22T02:13:37.620Z,0.00
2018-08-22T02:14:37.647Z,0.00
2018-08-22T02:15:37.679Z,0.00
2018-08-22T02:16:37.709Z,0.00
2018-08-22T02:17:37.741Z,0.00
2018-08-22T02:18:37.769Z,0.00
2018-08-22T02:19:37.800Z,0.00
2018-08-22T02:20:37.832Z,0.00
2018-08-22T02:21:37.860Z,0.00
2018-08-22T02:22:37.889Z,0.00
2018-08-22T02:23:37.926Z,0.00
2018-08-22T02:24:37.954Z,0.00
2018-08-22T02:25:37.984Z,0.00
2018-08-22T02:26:38.014Z,0.00
2018-08-22T02:27:38.043Z,0.00
2018-08-22T02:28:38.077Z,0.00
2018-08-22T02:29:38.103Z,0.00
2018-08-22T02:30:38.138Z,0.00
2018-08-22T02:31:38.168Z,0.00
2018-08-22T02:32:38.196Z,0.00
2018-08-22T02:33:38.228Z,0.00
2018-08-22T02:34:38.260Z,0.00
2018-08-22T02:35:38.287Z,0.00
2018-08-22T02:36:38.319Z,0.00
2018-08-22T02:37:38.345Z,0.00
2018-08-22T02:38:38.378Z,0.00
2018-08-22T02:39:38.407Z,0.00
2018-08-22T02:40:38.441Z,0.00
2018-08-22T02:41:38.467Z,0.00
2018-08-22T02:42:38.496Z,0.00
2018-08-22T02:43:38.529Z,0.00
2018-08-22T02:44:38.561Z,0.00
2018-08-22T02:45:38.590Z,0.00
2018-08-22T02:46:38.620Z,0.00
2018-08-22T02:47:38.649Z,0.00
2018-08-22T02:48:38.681Z,0.00
2018-08-22T02:49:38.713Z,0.00
2018-08-22T02:50:38.743Z,0.00
2018-08-22T02:51:38.770Z,0.00
2018-08-22T02:52:38.803Z,0.00
2018-08-22T02:53:38.830Z,0.00
2018-08-22T02:54:38.863Z,0.00
2018-08-22T02:55:38.897Z,0.00
2018-08-22T02:56:38.919Z,0.00
2018-08-22T02:57:38.953Z,0.00
2018-08-22T02:58:38.983Z,0.00
2018-08-22T02:59:39.016Z,0.00
2018-08-22T03:00:39.040Z,0.00
2018-08-22T03:01:39.077Z,0.00
2018-08-22T03:02:39.106Z,0.00
2018-08-22T03:03:39.133Z,0.00
2018-08-22T03:04:39.164Z,0.00
2018-08-22T03:05:39.193Z,0.00
2018-08-22T03:06:39.225Z,0.00
2018-08-22T03:07:39.260Z,0.00
2018-08-22T03:08:39.285Z,0.00
2018-08-22T03:09:39.319Z,0.00
2018-08-22T03:10:39.349Z,0.00
2018-08-22T03:11:39.376Z,0.00
2018-08-22T03:12:39.405Z,0.00
2018-08-22T03:13:39.439Z,0.00
2018-08-22T03:14:39.469Z,0.00
2018-08-22T03:15:39.498Z,0.00
2018-08-22T03:16:39.530Z,0.00
2018-08-22T03:17:39.556Z,0.00
2018-08-22T03:18:39.587Z,0.00
2018-08-22T03:19:39.618Z,0.00
2018-08-22T03:20:39.647Z,0.00
2018-08-22T03:21:39.679Z,0.00
2018-08-22T03:22:39.711Z,0.00
2018-08-22T03:23:39.740Z,0.00
2018-08-22T03:24:39.767Z,0.00
2018-08-22T03:25:39.801Z,0.00
2018-08-22T03:26:39.828Z,0.00
2018-08-22T03:27:39.858Z,0.00
2018-08-22T03:28:39.888Z,0.00
2018-08-22T03:29:39.920Z,0.00
2018-08-22T03:30:39.947Z,0.00
2018-08-22T03:31:39.980Z,0.00
2018-08-22T03:32:40.012Z,0.00
2018-08-22T03:33:40.039Z,0.00
2018-08-22T03:34:40.072Z,0.00
2018-08-22T03:35:40.102Z,0.00
2018-08-22T03:36:40.130Z,0.00
2018-08-22T03:37:40.163Z,0.00
2018-08-22T03:38:40.191Z,0.00
2018-08-22T03:39:40.222Z,0.00
2018-08-22T03:40:40.250Z,0.00
2018-08-22T03:41:40.280Z,0.00
2018-08-22T03:42:40.313Z,0.00
2018-08-22T03:43:40.341Z,0.00
2018-08-22T03:44:40.371Z,0.00
2018-08-22T03:45:40.401Z,0.00
2018-08-22T03:46:40.433Z,0.00
2018-08-22T03:47:40.462Z,0.00
2018-08-22T03:48:40.497Z,0.00
2018-08-22T03:49:40.522Z,0.00
2018-08-22T03:50:40.551Z,0.00
2018-08-22T03:51:40.580Z,4.00
2018-08-22T03:52:40.615Z,4.00
2018-08-22T03:53:40.642Z,4.00
2018-08-22T03:54:40.673Z,0.00
2018-08-22T03:55:40.705Z,4.00
2018-08-22T03:56:40.734Z,4.00
2018-08-22T03:57:40.764Z,4.00
2018-08-22T03:58:40.794Z,4.00
2018-08-22T03:59:40.824Z,8.00
2018-08-22T04:00:40.855Z,8.00
2018-08-22T04:01:40.881Z,8.00
2018-08-22T04:02:40.914Z,12.00
2018-08-22T04:03:40.943Z,12.00
2018-08-22T04:04:40.974Z,16.00
2018-08-22T04:05:41.005Z,16.00
2018-08-22T04:06:41.041Z,20.00
2018-08-22T04:07:41.065Z,20.00
2018-08-22T04:08:41.095Z,24.00
2018-08-22T04:09:41.125Z,28.00
2018-08-22T04:10:41.160Z,32.00
2018-08-22T04:11:41.185Z,36.00
2018-08-22T04:12:41.219Z,40.00
2018-08-22T04:13:41.247Z,48.00
2018-08-22T04:14:41.278Z,52.00
2018-08-22T04:15:41.308Z,64.00
2018-08-22T04:16:41.339Z,68.00
2018-08-22T04:17:41.366Z,76.00
2018-08-22T04:18:41.401Z,88.00
2018-08-22T04:19:41.428Z,96.00
2018-08-22T04:20:41.457Z,108.00
2018-08-22T04:21:41.487Z,116.00
2018-08-22T04:22:41.519Z,128.00
2018-08-22T04:23:41.547Z,144.00
2018-08-22T04:24:41.577Z,160.00
2018-08-22T04:25:41.609Z,176.00
2018-08-22T04:26:41.638Z,192.00
2018-08-22T04:27:41.668Z,212.00
2018-08-22T04:28:41.699Z,228.00
2018-08-22T04:29:41.728Z,248.00
2018-08-22T04:30:41.758Z,264.00
2018-08-22T04:31:41.790Z,280.00
2018-08-22T04:32:41.816Z,296.00
2018-08-22T04:33:41.853Z,312.00
2018-08-22T04:34:41.879Z,332.00
2018-08-22T04:35:41.911Z,348.00
2018-08-22T04:36:41.938Z,368.00
2018-08-22T04:37:41.969Z,392.00
2018-08-22T04:38:41.997Z,416.00
2018-08-22T04:39:42.032Z,440.00
2018-08-22T04:40:42.060Z,464.00
2018-08-22T04:41:42.090Z,488.00
2018-08-22T04:42:42.119Z,512.00
2018-08-22T04:43:42.148Z,540.00
2018-08-22T04:44:42.176Z,564.00
2018-08-22T04:45:42.211Z,592.00
2018-08-22T04:46:42.238Z,624.00
2018-08-22T04:47:42.272Z,656.00
2018-08-22T04:48:42.302Z,688.00
2018-08-22T04:49:42.329Z,716.00
2018-08-22T04:50:42.363Z,740.00
2018-08-22T04:51:42.389Z,764.00
2018-08-22T04:52:42.420Z,800.00
2018-08-22T04:53:42.447Z,832.00
2018-08-22T04:54:42.482Z,868.00
2018-08-22T04:55:42.513Z,900.00
2018-08-22T04:56:42.543Z,936.00
2018-08-22T04:57:42.571Z,972.00
2018-08-22T04:58:42.604Z,1000.00
2018-08-22T04:59:42.629Z,1028.00
2018-08-22T05:00:42.662Z,1056.00
2018-08-22T05:01:42.691Z,1092.00
2018-08-22T05:02:42.722Z,1132.00
2018-08-22T05:03:42.750Z,1176.00
2018-08-22T05:04:42.778Z,1224.00
2018-08-22T05:05:42.809Z,1268.00
2018-08-22T05:06:42.845Z,1312.00
2018-08-22T05:07:42.874Z,1348.00
2018-08-22T05:08:42.903Z,1388.00
2018-08-22T05:09:42.932Z,1412.00
2018-08-22T05:10:42.962Z,1428.00
2018-08-22T05:11:42.993Z,1456.00
2018-08-22T05:12:43.022Z,1492.00
2018-08-22T05:13:43.052Z,1548.00
2018-08-22T05:14:43.086Z,1592.00
2018-08-22T05:15:43.111Z,1660.00
2018-08-22T05:16:43.143Z,1724.00
2018-08-22T05:17:43.173Z,1792.00
2018-08-22T05:18:43.205Z,1844.00
2018-08-22T05:19:43.237Z,1908.00
2018-08-22T05:20:43.262Z,2000.00
2018-08-22T05:21:43.294Z,2116.00
2018-08-22T05:22:43.323Z,2236.00
2018-08-22T05:23:43.368Z,2356.00
2018-08-22T05:24:43.472Z,2456.00
2018-08-22T05:25:43.415Z,2564.00
2018-08-22T05:26:43.446Z,2684.00
2018-08-22T05:27:43.474Z,2820.00
2018-08-22T05:28:43.506Z,3020.00
2018-08-22T05:29:43.535Z,3240.00
2018-08-22T05:30:43.566Z,3460.00
2018-08-22T05:31:43.595Z,3660.00
2018-08-22T05:32:43.631Z,3780.00
2018-08-22T05:33:43.657Z,3864.00
2018-08-22T05:34:43.690Z,3904.00
2018-08-22T05:35:43.719Z,3924.00
2018-08-22T05:36:43.750Z,3956.00
2018-08-22T05:37:43.781Z,3972.00
2018-08-22T05:38:43.808Z,3944.00
2018-08-22T05:39:43.843Z,3864.00
2018-08-22T05:40:43.965Z,3796.00
2018-08-22T05:41:43.900Z,3744.00
2018-08-22T05:42:43.930Z,3724.00
2018-08-22T05:43:43.963Z,3732.00
2018-08-22T05:44:43.992Z,3764.00
2018-08-22T05:45:44.025Z,3832.00
2018-08-22T05:46:44.055Z,3908.00
2018-08-22T05:47:44.082Z,4068.00
2018-08-22T05:48:44.117Z,4360.00
2018-08-22T05:49:44.144Z,4676.00
2018-08-22T05:50:44.175Z,4944.00
2018-08-22T05:51:44.204Z,5104.00
2018-08-22T05:52:44.233Z,5216.00
2018-08-22T05:53:44.266Z,5316.00
2018-08-22T05:54:44.297Z,5400.00
2018-08-22T05:55:44.328Z,5476.00
2018-08-22T05:56:44.356Z,5580.00
2018-08-22T05:57:44.389Z,5720.00
2018-08-22T05:58:44.419Z,5824.00
2018-08-22T05:59:44.448Z,5832.00
2018-08-22T06:00:44.478Z,5952.00
2018-08-22T06:01:44.511Z,6204.00
2018-08-22T06:02:44.543Z,6520.00
2018-08-22T06:03:44.571Z,6788.00
2018-08-22T06:04:44.603Z,7032.00
2018-08-22T06:05:44.631Z,7288.00
2018-08-22T06:06:44.662Z,7548.00
2018-08-22T06:07:44.696Z,7940.00
2018-08-22T06:08:44.726Z,8228.00
2018-08-22T06:09:44.754Z,8468.00
2018-08-22T06:10:44.790Z,8672.00
2018-08-22T06:11:44.819Z,8784.00
2018-08-22T06:12:44.848Z,8808.00
2018-08-22T06:13:44.883Z,8788.00
2018-08-22T06:14:44.909Z,8828.00
2018-08-22T06:15:45.052Z,8936.00
2018-08-22T06:16:44.973Z,9128.00
2018-08-22T06:17:45.003Z,9332.00
2018-08-22T06:18:45.036Z,9484.00
2018-08-22T06:19:45.134Z,9632.00
2018-08-22T06:20:45.096Z,9780.00
2018-08-22T06:21:45.125Z,9932.00
2018-08-22T06:22:45.156Z,10104.00
2018-08-22T06:23:45.188Z,10336.00
2018-08-22T06:24:45.271Z,10656.00
2018-08-22T06:25:45.247Z,10920.00
2018-08-22T06:26:45.284Z,11196.00
2018-08-22T06:27:45.312Z,12452.00
2018-08-22T06:28:45.339Z,13416.00
2018-08-22T06:29:45.367Z,14224.00
2018-08-22T06:30:45.403Z,12404.00
2018-08-22T06:31:45.430Z,14520.00
2018-08-22T06:32:45.461Z,15128.00
2018-08-22T06:33:45.492Z,15308.00
2018-08-22T06:34:45.523Z,15960.00
2018-08-22T06:35:45.554Z,17888.00
2018-08-22T06:36:45.585Z,21888.00
2018-08-22T06:37:45.680Z,20608.00
2018-08-22T06:38:45.652Z,25024.00
2018-08-22T06:39:45.680Z,26464.00
2018-08-22T06:40:45.713Z,27392.00
2018-08-22T06:41:45.743Z,26080.00
2018-08-22T06:42:45.774Z,24864.00
2018-08-22T06:43:45.808Z,23296.00
2018-08-22T06:44:45.858Z,25408.00
2018-08-22T06:45:45.872Z,18976.00
2018-08-22T06:46:45.902Z,18336.00
2018-08-22T06:47:45.942Z,19712.00
2018-08-22T06:48:45.969Z,34912.00
2018-08-22T06:49:45.999Z,19104.00
2018-08-22T06:50:46.034Z,27840.00
2018-08-22T06:51:46.064Z,21408.00
2018-08-22T06:52:46.097Z,15984.00
2018-08-22T06:53:46.132Z,14872.00
2018-08-22T06:54:46.162Z,15024.00
2018-08-22T06:55:46.196Z,13916.00
2018-08-22T06:56:46.233Z,22400.00
2018-08-22T06:57:46.260Z,13408.00
2018-08-22T06:58:46.296Z,12596.00
2018-08-22T06:59:46.328Z,12124.00
2018-08-22T07:00:46.363Z,13344.00
2018-08-22T07:01:46.419Z,11844.00
2018-08-22T07:02:46.527Z,11196.00
2018-08-22T07:03:46.464Z,10320.00
2018-08-22T07:04:46.491Z,10124.00
2018-08-22T07:05:46.526Z,10968.00
2018-08-22T07:06:46.564Z,11844.00
2018-08-22T07:07:46.592Z,17472.00
2018-08-22T07:08:46.621Z,9460.00
2018-08-22T07:09:46.661Z,9088.00
2018-08-22T07:10:46.694Z,8424.00
2018-08-22T07:11:46.724Z,7864.00
2018-08-22T07:12:46.762Z,7524.00
2018-08-22T07:13:46.794Z,7304.00
2018-08-22T07:14:46.822Z,7152.00
2018-08-22T07:15:46.854Z,7072.00
2018-08-22T07:16:46.887Z,7056.00
2018-08-22T07:17:46.924Z,7212.00
2018-08-22T07:18:46.952Z,7564.00
2018-08-22T07:19:46.988Z,8076.00
2018-08-22T07:20:47.024Z,8632.00
2018-08-22T07:21:47.052Z,9324.00
2018-08-22T07:22:47.088Z,10080.00
2018-08-22T07:23:47.118Z,11344.00
2018-08-22T07:24:47.149Z,13772.00
2018-08-22T07:25:47.183Z,42400.00
2018-08-22T07:26:47.214Z,51072.00
2018-08-22T07:27:47.250Z,43520.00
2018-08-22T07:28:47.284Z,37888.00
2018-08-22T07:29:47.312Z,54816.00
2018-08-22T07:30:47.344Z,57216.00
2018-08-22T07:31:47.378Z,53792.00
2018-08-22T07:32:47.412Z,52896.00
2018-08-22T07:33:47.443Z,54496.00
2018-08-22T07:34:47.475Z,57536.00
2018-08-22T07:35:47.589Z,57600.00
2018-08-22T07:36:47.546Z,60960.00
2018-08-22T07:37:47.579Z,57376.00
2018-08-22T07:38:47.613Z,60288.00
2018-08-22T07:39:47.649Z,61216.00
2018-08-22T07:40:47.679Z,62624.00
2018-08-22T07:41:47.714Z,63264.00
2018-08-22T07:42:47.751Z,61920.00
2018-08-22T07:43:48.390Z,63168.00
2018-08-22T07:44:47.819Z,64672.00
2018-08-22T07:45:47.854Z,63808.00
2018-08-22T07:46:47.891Z,63008.00
2018-08-22T07:47:47.923Z,62976.00
2018-08-22T07:48:47.961Z,64288.00
2018-08-22T07:49:47.996Z,66592.00
2018-08-22T07:50:48.030Z,65472.00
2018-08-22T07:51:48.070Z,61440.00
2018-08-22T07:52:48.105Z,61984.00
2018-08-22T07:53:48.139Z,61952.00
2018-08-22T07:54:48.173Z,62656.00
2018-08-22T07:55:48.213Z,61184.00
2018-08-22T07:56:48.250Z,61440.00
2018-08-22T07:57:48.283Z,60928.00
2018-08-22T07:58:48.319Z,64224.00
2018-08-22T07:59:48.359Z,57024.00
2018-08-22T08:00:48.398Z,62528.00
2018-08-22T08:01:48.450Z,54848.00
2018-08-22T08:02:48.473Z,66240.00
2018-08-22T08:03:48.510Z,67808.00
2018-08-22T08:04:48.545Z,70336.00
2018-08-22T08:05:48.593Z,69376.00
2018-08-22T08:06:48.621Z,67488.00
2018-08-22T08:07:48.659Z,45280.00
2018-08-22T08:08:48.804Z,70464.00
2018-08-22T08:09:48.734Z,70592.00
2018-08-22T08:10:48.775Z,70560.00
2018-08-22T08:11:48.810Z,71232.00
2018-08-22T08:12:48.850Z,70240.00
2018-08-22T08:13:48.888Z,65600.00
2018-08-22T08:14:48.923Z,65952.00
2018-08-22T08:15:48.968Z,63424.00
2018-08-22T08:16:49.001Z,56320.00
2018-08-22T08:17:49.038Z,59936.00
2018-08-22T08:18:49.077Z,60128.00
2018-08-22T08:19:49.117Z,62720.00
2018-08-22T08:20:49.155Z,60512.00
2018-08-22T08:21:49.208Z,60032.00
2018-08-22T08:22:49.234Z,68192.00
2018-08-22T08:23:49.273Z,68352.00
2018-08-22T08:24:49.309Z,62400.00
2018-08-22T08:25:49.349Z,61536.00
2018-08-22T08:26:49.390Z,66688.00
2018-08-22T08:27:49.429Z,70560.00
2018-08-22T08:28:49.464Z,66176.00
2018-08-22T08:29:49.505Z,64288.00
2018-08-22T08:30:49.541Z,67552.00
2018-08-22T08:31:49.578Z,69632.00
2018-08-22T08:32:49.617Z,70560.00
2018-08-22T08:33:49.656Z,68512.00
2018-08-22T08:34:49.697Z,68288.00
2018-08-22T08:35:49.839Z,66112.00
2018-08-22T08:36:49.776Z,68864.00
2018-08-22T08:37:49.818Z,66368.00
2018-08-22T08:38:49.857Z,64384.00
2018-08-22T08:39:49.893Z,67360.00
2018-08-22T08:40:49.931Z,68064.00
2018-08-22T08:41:50.056Z,68512.00
2018-08-22T08:42:50.029Z,70368.00
2018-08-22T08:43:50.057Z,72064.00
2018-08-22T08:44:50.093Z,72992.00
2018-08-22T08:45:50.129Z,73280.00
2018-08-22T08:46:50.178Z,72768.00
2018-08-22T08:47:50.211Z,72608.00
2018-08-22T08:48:50.249Z,72256.00
2018-08-22T08:49:50.297Z,71200.00
2018-08-22T08:50:50.332Z,70848.00
2018-08-22T08:51:50.373Z,70336.00
2018-08-22T08:52:50.424Z,72896.00
2018-08-22T08:53:50.450Z,74656.00
2018-08-22T08:54:50.495Z,75232.00
2018-08-22T08:55:50.533Z,76032.00
2018-08-22T08:56:50.571Z,74560.00
2018-08-22T08:57:50.616Z,73728.00
2018-08-22T08:58:50.652Z,72672.00
2018-08-22T08:59:50.695Z,73280.00
2018-08-22T09:00:50.733Z,72704.00
2018-08-22T09:01:50.773Z,73056.00
2018-08-22T09:02:50.816Z,73760.00
2018-08-22T09:03:50.880Z,74912.00
2018-08-22T09:04:50.911Z,75584.00
2018-08-22T09:05:50.936Z,73952.00
2018-08-22T09:06:50.979Z,76160.00
2018-08-22T09:07:51.019Z,76416.00
2018-08-22T09:08:51.061Z,76224.00
2018-08-22T09:09:51.099Z,77856.00
2018-08-22T09:10:51.212Z,79072.00
2018-08-22T09:11:51.185Z,80736.00
2018-08-22T09:12:51.224Z,81088.00
2018-08-22T09:13:51.265Z,80128.00
2018-08-22T09:14:51.307Z,79488.00
2018-08-22T09:15:51.347Z,79840.00
2018-08-22T09:16:51.389Z,81120.00
2018-08-22T09:17:51.428Z,79840.00
2018-08-22T09:18:51.469Z,77856.00
2018-08-22T09:19:51.515Z,77984.00
2018-08-22T09:20:51.553Z,79584.00
2018-08-22T09:21:51.594Z,79744.00
2018-08-22T09:22:51.635Z,80256.00
2018-08-22T09:23:51.681Z,81312.00
2018-08-22T09:24:51.718Z,81344.00
2018-08-22T09:25:51.761Z,80608.00
2018-08-22T09:26:51.801Z,81120.00
2018-08-22T09:27:51.841Z,79040.00
2018-08-22T09:28:51.882Z,77952.00
2018-08-22T09:29:51.947Z,78496.00
2018-08-22T09:30:51.969Z,77312.00
2018-08-22T09:31:52.011Z,82720.00
2018-08-22T09:32:52.048Z,83008.00
2018-08-22T09:33:52.089Z,81472.00
2018-08-22T09:34:52.132Z,79072.00
2018-08-22T09:35:52.174Z,80576.00
2018-08-22T09:36:52.245Z,76992.00
2018-08-22T09:37:52.259Z,77088.00
2018-08-22T09:38:52.300Z,75936.00
2018-08-22T09:39:52.413Z,77696.00
2018-08-22T09:40:52.382Z,76832.00
2018-08-22T09:41:52.423Z,80160.00
2018-08-22T09:42:52.469Z,83744.00
2018-08-22T09:43:52.508Z,79552.00
2018-08-22T09:44:52.548Z,80032.00
2018-08-22T09:45:52.589Z,77888.00
2018-08-22T09:46:52.789Z,71360.00
2018-08-22T09:47:52.675Z,63968.00
2018-08-22T09:48:52.719Z,63648.00
2018-08-22T09:49:52.757Z,62336.00
2018-08-22T09:50:52.865Z,62784.00
2018-08-22T09:51:52.846Z,65888.00
2018-08-22T09:52:52.885Z,70400.00
2018-08-22T09:53:52.925Z,69440.00
2018-08-22T09:54:52.967Z,85184.00
2018-08-22T09:55:53.010Z,82272.00
2018-08-22T09:56:53.048Z,81984.00
2018-08-22T09:57:53.093Z,78272.00
2018-08-22T09:58:53.134Z,67136.00
2018-08-22T09:59:53.241Z,65952.00
2018-08-22T10:00:53.217Z,69312.00
2018-08-22T10:01:53.262Z,74208.00
2018-08-22T10:02:53.297Z,74560.00
2018-08-22T10:03:53.343Z,69696.00
2018-08-22T10:04:53.382Z,70304.00
2018-08-22T10:05:53.423Z,76864.00
2018-08-22T10:06:53.643Z,74912.00
2018-08-22T10:07:53.505Z,75168.00
2018-08-22T10:08:53.546Z,81632.00
2018-08-22T10:09:53.638Z,79776.00
2018-08-22T10:10:53.634Z,76736.00
2018-08-22T10:11:53.686Z,71776.00
2018-08-22T10:12:53.714Z,79296.00
2018-08-22T10:13:53.751Z,84096.00
2018-08-22T10:14:53.796Z,82144.00
2018-08-22T10:15:53.839Z,75040.00
2018-08-22T10:16:53.881Z,70912.00
2018-08-22T10:17:53.923Z,71776.00
2018-08-22T10:18:53.988Z,72064.00
2018-08-22T10:19:54.009Z,71904.00
2018-08-22T10:20:54.048Z,66976.00
2018-08-22T10:21:54.090Z,72352.00
2018-08-22T10:22:54.130Z,74112.00
2018-08-22T10:23:54.173Z,73344.00
2018-08-22T10:24:54.213Z,72288.00
2018-08-22T10:25:54.257Z,63584.00
2018-08-22T10:26:54.315Z,57344.00
2018-08-22T10:27:54.337Z,70624.00
2018-08-22T10:28:54.378Z,70976.00
2018-08-22T10:29:54.421Z,71392.00
2018-08-22T10:30:54.461Z,74848.00
2018-08-22T10:31:54.505Z,65760.00
2018-08-22T10:32:54.730Z,54944.00
2018-08-22T10:33:54.585Z,50592.00
2018-08-22T10:34:54.627Z,54272.00
2018-08-22T10:35:54.672Z,63424.00
2018-08-22T10:36:54.710Z,59104.00
2018-08-22T10:37:54.753Z,51168.00
2018-08-22T10:38:54.795Z,53408.00
2018-08-22T10:39:54.854Z,69632.00
2018-08-22T10:40:54.879Z,75968.00
2018-08-22T10:41:54.923Z,81216.00
2018-08-22T10:42:54.961Z,77184.00
2018-08-22T10:43:55.005Z,70304.00
2018-08-22T10:44:55.045Z,77344.00
2018-08-22T10:45:55.082Z,60448.00
2018-08-22T10:46:55.127Z,72160.00
2018-08-22T10:47:55.181Z,72544.00
2018-08-22T10:48:55.207Z,63488.00
2018-08-22T10:49:55.245Z,65504.00
2018-08-22T10:50:55.289Z,38240.00
2018-08-22T10:51:55.334Z,31584.00
2018-08-22T10:52:55.373Z,43680.00
2018-08-22T10:53:55.421Z,30688.00
2018-08-22T10:54:55.456Z,34464.00
2018-08-22T10:55:55.499Z,52448.00
2018-08-22T10:56:55.534Z,55328.00
2018-08-22T10:57:55.578Z,52416.00
2018-08-22T10:58:55.621Z,64768.00
2018-08-22T10:59:55.661Z,67200.00
2018-08-22T11:00:55.701Z,61728.00
2018-08-22T11:01:55.771Z,59328.00
2018-08-22T11:02:55.780Z,55584.00
2018-08-22T11:03:55.823Z,61440.00
2018-08-22T11:04:55.864Z,68832.00
2018-08-22T11:05:55.905Z,72416.00
2018-08-22T11:06:55.945Z,69600.00
2018-08-22T11:07:55.986Z,67424.00
2018-08-22T11:08:56.026Z,70688.00
2018-08-22T11:09:56.163Z,73440.00
2018-08-22T11:10:56.109Z,70560.00
2018-08-22T11:11:56.151Z,60800.00
2018-08-22T11:12:56.189Z,34720.00
2018-08-22T11:13:56.232Z,33952.00
2018-08-22T11:14:56.274Z,49792.00
2018-08-22T11:15:56.417Z,42528.00
2018-08-22T11:16:56.352Z,35744.00
2018-08-22T11:17:56.396Z,35360.00
2018-08-22T11:18:56.436Z,63360.00
2018-08-22T11:19:56.478Z,64000.00
2018-08-22T11:20:56.517Z,63296.00
2018-08-22T11:21:56.562Z,64384.00
2018-08-22T11:22:56.600Z,65760.00
2018-08-22T11:23:56.641Z,47776.00
2018-08-22T11:24:56.678Z,72512.00
2018-08-22T11:25:56.721Z,74432.00
2018-08-22T11:26:56.759Z,69152.00
2018-08-22T11:27:56.801Z,74016.00
2018-08-22T11:28:56.844Z,68320.00
2018-08-22T11:29:56.883Z,72672.00
2018-08-22T11:30:56.926Z,73600.00
2018-08-22T11:31:56.966Z,71968.00
2018-08-22T11:32:57.005Z,71808.00
2018-08-22T11:33:57.044Z,69120.00
2018-08-22T11:34:57.089Z,70144.00
2018-08-22T11:35:57.126Z,70144.00
2018-08-22T11:36:57.169Z,67808.00
2018-08-22T11:37:57.211Z,63552.00
2018-08-22T11:38:57.249Z,64992.00
2018-08-22T11:39:57.293Z,69984.00
2018-08-22T11:40:57.333Z,61888.00
2018-08-22T11:41:57.375Z,61568.00
2018-08-22T11:42:57.416Z,46944.00
2018-08-22T11:43:57.458Z,28160.00
2018-08-22T11:44:57.496Z,27648.00
2018-08-22T11:45:57.540Z,70784.00
2018-08-22T11:46:57.578Z,25280.00
2018-08-22T11:47:57.619Z,44800.00
2018-08-22T11:48:57.660Z,22176.00
2018-08-22T11:49:57.704Z,21408.00
2018-08-22T11:50:57.742Z,35424.00
2018-08-22T11:51:57.786Z,49248.00
2018-08-22T11:52:57.827Z,52928.00
2018-08-22T11:53:57.865Z,21504.00
2018-08-22T11:54:57.907Z,19520.00
2018-08-22T11:55:57.991Z,43456.00
2018-08-22T11:56:57.991Z,58080.00
2018-08-22T11:57:58.031Z,65600.00
2018-08-22T11:58:58.073Z,42400.00
2018-08-22T11:59:58.114Z,51904.00
2018-08-22T12:00:58.150Z,54048.00
2018-08-22T12:01:58.307Z,63648.00
2018-08-22T12:02:58.233Z,51744.00
2018-08-22T12:03:58.274Z,73184.00
2018-08-22T12:04:58.316Z,69824.00
2018-08-22T12:05:58.354Z,19232.00
2018-08-22T12:06:58.398Z,18168.00
2018-08-22T12:07:58.437Z,32160.00
2018-08-22T12:08:58.478Z,56064.00
2018-08-22T12:09:58.518Z,17368.00
2018-08-22T12:10:58.557Z,14628.00
2018-08-22T12:11:58.598Z,17656.00
2018-08-22T12:12:58.641Z,15408.00
2018-08-22T12:13:58.679Z,16808.00
2018-08-22T12:14:58.722Z,21248.00
2018-08-22T12:15:58.799Z,94752.00
2018-08-22T12:16:58.797Z,134624.00
2018-08-22T12:17:58.842Z,121056.00
2018-08-22T12:18:58.877Z,75808.00
2018-08-22T12:19:58.916Z,31136.00